Time;durP1;ratioP1;P1;durP2;ratioP2;P2;SDS_P1;SDS_P2;PMS_P1;PMS_P2;Temp;Humidity;BMP_temperature;BMP_pressure;BME280_temperature;BME280_humidity;BME280_pressure;Samples;Min_cycle;Max_cycle;Signal;HPM_P1;HPM_P2
2022/11/16 00:00:59;;;;;;;11.18;8.30;;;14.50;99.90;;;;;;5031734;28;20120;-62
2022/11/16 00:03:25;;;;;;;13.65;9.20;;;12.40;99.90;;;;;;5021246;28;20076;-62
2022/11/16 00:05:55;;;;;;;11.75;7.55;;;14.00;99.90;;;;;;5029943;28;20513;-62
2022/11/16 00:08:21;;;;;;;13.75;10.50;;;13.80;99.90;;;;;;5030941;28;20033;-62
2022/11/16 00:10:46;;;;;;;14.55;8.23;;;13.30;99.90;;;;;;5028870;28;20055;-62
2022/11/16 00:13:12;;;;;;;15.10;12.02;;;14.30;99.90;;;;;;5026821;28;20076;-62
2022/11/16 00:15:37;;;;;;;13.48;8.63;;;12.20;99.90;;;;;;5030947;28;20041;-62
2022/11/16 00:18:03;;;;;;;15.10;11.35;;;12.40;99.90;;;;;;5031155;28;20044;-62
2022/11/16 00:20:28;;;;;;;13.20;9.88;;;13.90;99.90;;;;;;5028468;28;20080;-63
2022/11/16 00:22:54;;;;;;;14.35;10.75;;;13.20;99.90;;;;;;5030822;28;20495;-62
2022/11/16 00:25:19;;;;;;;13.45;8.75;;;12.60;99.90;;;;;;5030860;28;20043;-62
2022/11/16 00:27:45;;;;;;;13.85;10.38;;;12.40;99.90;;;;;;5029442;28;20080;-62
2022/11/16 00:30:11;;;;;;;14.90;11.63;;;13.00;99.90;;;;;;5030083;28;20061;-62
2022/11/16 00:32:36;;;;;;;19.35;11.82;;;14.30;99.90;;;;;;5030618;28;20119;-62
2022/11/16 00:35:02;;;;;;;13.43;9.18;;;12.60;99.90;;;;;;5031038;28;20041;-62
2022/11/16 00:37:28;;;;;;;17.33;10.82;;;13.00;99.90;;;;;;5032558;28;20410;-62
2022/11/16 00:39:53;;;;;;;16.27;12.90;;;13.00;99.90;;;;;;5030022;28;20087;-62
2022/11/16 00:42:19;;;;;;;23.52;14.48;;;14.70;99.90;;;;;;5031342;28;20042;-63
2022/11/16 00:44:44;;;;;;;17.20;12.05;;;12.40;99.90;;;;;;5032153;28;20041;-62
2022/11/16 00:47:10;;;;;;;19.33;13.75;;;12.60;99.90;;;;;;5030597;28;20048;-62
2022/11/16 00:49:37;;;;;;;20.05;15.68;;;12.50;99.90;;;;;;5031864;28;20037;-62
2022/11/16 00:52:03;;;;;;;19.02;14.13;;;14.80;99.90;;;;;;5024048;28;20069;-63
2022/11/16 00:54:28;;;;;;;16.77;13.55;;;14.10;99.90;;;;;;5029043;28;20077;-62
2022/11/16 00:56:54;;;;;;;18.48;12.18;;;13.70;99.90;;;;;;5029155;28;20052;-62
2022/11/16 00:59:19;;;;;;;14.88;11.68;;;12.50;99.90;;;;;;5029366;28;20510;-63
2022/11/16 01:01:45;;;;;;;18.58;13.57;;;14.90;99.90;;;;;;5030366;28;20491;-62
2022/11/16 01:04:10;;;;;;;23.58;14.80;;;14.80;99.90;;;;;;5025061;28;20085;-62
2022/11/16 01:06:36;;;;;;;17.42;13.88;;;15.00;99.90;;;;;;5025648;28;20045;-62
2022/11/16 01:09:01;;;;;;;22.60;13.35;;;13.30;99.90;;;;;;5025205;28;20053;-62
2022/11/16 01:14:11;;;;;;;17.65;11.68;;;13.10;99.90;;;;;;5025108;28;20037;-63
2022/11/16 01:16:37;;;;;;;18.95;14.43;;;12.90;99.90;;;;;;5029057;28;20099;-63
2022/11/16 01:19:03;;;;;;;18.80;14.45;;;14.90;99.90;;;;;;5029716;28;20124;-62
2022/11/16 01:21:28;;;;;;;16.48;14.15;;;12.60;99.90;;;;;;5031266;28;20045;-62
2022/11/16 01:23:55;;;;;;;21.50;14.70;;;12.70;99.90;;;;;;5029563;28;20045;-62
2022/11/16 01:26:21;;;;;;;15.40;11.95;;;15.30;99.90;;;;;;5026253;28;20068;-62
2022/11/16 01:28:47;;;;;;;18.05;12.23;;;14.90;99.90;;;;;;5028982;28;20076;-62
2022/11/16 01:31:13;;;;;;;18.65;12.90;;;13.60;99.90;;;;;;5022972;28;20083;-62
2022/11/16 01:33:39;;;;;;;13.30;9.98;;;12.70;99.90;;;;;;5028602;28;20145;-62
2022/11/16 01:36:13;;;;;;;19.17;14.73;;;14.40;99.90;;;;;;5021298;28;20117;-62
2022/11/16 01:38:40;;;;;;;19.33;12.27;;;14.10;99.90;;;;;;5029960;28;20041;-62
2022/11/16 01:41:05;;;;;;;17.63;11.60;;;12.70;99.90;;;;;;5024850;28;20037;-62
2022/11/16 01:43:50;;;;;;;14.45;12.00;;;13.80;99.90;;;;;;5029458;28;20068;-63
2022/11/16 01:46:16;;;;;;;15.27;10.52;;;14.00;99.90;;;;;;5019241;28;20502;-63
2022/11/16 01:48:41;;;;;;;20.27;15.02;;;13.10;99.90;;;;;;5029222;28;20038;-63
2022/11/16 01:51:08;;;;;;;16.45;11.63;;;14.70;99.90;;;;;;5028856;28;20060;-62
2022/11/16 01:53:33;;;;;;;18.27;14.05;;;14.20;99.90;;;;;;5027505;28;20037;-63
2022/11/16 01:55:59;;;;;;;14.18;11.80;;;13.30;99.90;;;;;;5029617;28;20033;-63
2022/11/16 01:58:26;;;;;;;14.60;11.02;;;14.50;99.90;;;;;;5029966;28;20446;-63
2022/11/16 02:00:51;;;;;;;13.20;10.88;;;14.00;99.90;;;;;;5030125;28;20045;-62
2022/11/16 02:03:18;;;;;;;12.40;9.55;;;14.90;99.90;;;;;;5029012;28;20041;-63
2022/11/16 02:05:47;;;;;;;16.00;9.32;;;13.00;99.90;;;;;;5030668;28;20128;-63
2022/11/16 02:11:22;;;;;;;15.13;12.15;;;13.10;99.90;;;;;;5028377;28;20080;-63
2022/11/16 02:13:47;;;;;;;15.40;11.55;;;14.30;99.90;;;;;;5027774;28;20090;-63
2022/11/16 02:16:25;;;;;;;17.70;10.25;;;13.20;99.90;;;;;;5029678;28;20038;-63
2022/11/16 02:19:28;;;;;;;14.90;11.15;;;13.60;99.90;;;;;;5025297;28;20049;-63
2022/11/16 02:22:23;;;;;;;17.15;14.35;;;13.30;99.90;;;;;;5029774;28;20064;-63
2022/11/16 02:25:11;;;;;;;15.90;13.50;;;14.10;99.90;;;;;;5021807;28;20095;-63
2022/11/16 02:27:45;;;;;;;16.25;13.57;;;14.40;99.90;;;;;;5022740;28;20048;-63
2022/11/16 02:30:11;;;;;;;18.35;14.07;;;14.10;99.90;;;;;;5027577;28;20242;-64
2022/11/16 02:32:41;;;;;;;15.50;10.50;;;14.40;99.90;;;;;;5029435;28;20037;-63
2022/11/16 02:35:13;;;;;;;15.73;11.35;;;13.60;99.90;;;;;;5027238;28;20529;-63
2022/11/16 02:37:44;;;;;;;17.85;12.73;;;13.80;99.90;;;;;;5029852;28;20045;-62
2022/11/16 02:40:13;;;;;;;15.00;11.93;;;14.40;99.90;;;;;;5028291;28;20029;-62
2022/11/16 02:42:50;;;;;;;14.55;11.10;;;13.10;99.90;;;;;;5029793;28;20450;-63
2022/11/16 02:45:21;;;;;;;15.57;11.80;;;13.90;99.90;;;;;;5028959;28;20044;-63
2022/11/16 02:47:49;;;;;;;16.65;11.95;;;14.30;99.90;;;;;;5027933;28;20045;-63
2022/11/16 02:50:18;;;;;;;14.63;11.05;;;13.70;99.90;;;;;;5028664;28;20454;-62
2022/11/16 02:52:44;;;;;;;13.98;10.95;;;13.80;99.90;;;;;;5029415;28;20033;-63
2022/11/16 02:55:10;;;;;;;15.55;11.82;;;14.50;99.90;;;;;;5031274;28;20043;-63
2022/11/16 02:57:41;;;;;;;17.25;12.98;;;14.70;99.90;;;;;;5014195;28;20045;-63
2022/11/16 03:00:11;;;;;;;20.05;15.15;;;13.60;99.90;;;;;;5023415;28;20038;-63
2022/11/16 03:02:53;;;;;;;15.32;10.20;;;13.80;99.90;;;;;;5027235;28;20080;-62
2022/11/16 03:05:33;;;;;;;23.77;17.90;;;14.70;99.90;;;;;;5028011;28;20045;-63
2022/11/16 03:08:29;;;;;;;13.30;10.20;;;13.60;99.90;;;;;;5030856;28;20483;-63
2022/11/16 03:13:47;;;;;;;15.48;11.98;;;14.80;99.90;;;;;;5032326;28;20049;-64
2022/11/16 03:16:21;;;;;;;16.25;13.43;;;13.90;99.90;;;;;;5032563;28;20044;-65
2022/11/16 03:18:50;;;;;;;11.02;8.40;;;14.20;99.90;;;;;;5032767;28;20040;-63
2022/11/16 03:21:35;;;;;;;15.10;10.77;;;14.80;99.90;;;;;;5032448;28;20438;-63
2022/11/16 03:24:01;;;;;;;12.52;9.25;;;14.70;99.90;;;;;;5031181;28;20041;-62
2022/11/16 03:26:34;;;;;;;14.55;11.95;;;13.70;99.90;;;;;;5015807;28;20037;-63
2022/11/16 03:29:01;;;;;;;14.23;11.52;;;13.70;99.90;;;;;;5023507;28;20045;-63
2022/11/16 03:31:32;;;;;;;13.70;10.82;;;13.90;99.90;;;;;;5027211;28;20438;-62
2022/11/16 03:34:03;;;;;;;15.32;10.98;;;14.00;99.90;;;;;;5031698;28;20044;-62
2022/11/16 03:36:37;;;;;;;12.98;10.20;;;13.90;99.90;;;;;;5030424;28;20116;-63
2022/11/16 03:39:21;;;;;;;14.23;12.20;;;14.70;99.90;;;;;;5028093;28;20065;-63
2022/11/16 03:41:48;;;;;;;17.17;13.75;;;13.90;99.90;;;;;;5031725;28;20037;-62
2022/11/16 03:44:16;;;;;;;12.73;10.10;;;14.50;99.90;;;;;;5027735;28;20049;-63
2022/11/16 03:46:44;;;;;;;13.52;10.38;;;14.80;99.90;;;;;;5032693;28;20037;-63
2022/11/16 03:49:09;;;;;;;17.25;11.60;;;14.90;99.90;;;;;;5024758;28;20095;-62
2022/11/16 03:51:35;;;;;;;15.98;14.15;;;14.00;99.90;;;;;;5030323;28;20042;-62
2022/11/16 03:54:01;;;;;;;18.10;14.40;;;14.90;99.90;;;;;;5032035;28;20543;-62
2022/11/16 03:56:26;;;;;;;18.35;14.95;;;14.90;99.90;;;;;;5031076;28;20099;-63
2022/11/16 03:58:52;;;;;;;15.77;13.65;;;14.70;99.90;;;;;;5026643;28;20030;-62
2022/11/16 04:01:18;;;;;;;19.35;15.65;;;13.90;99.90;;;;;;5031932;28;20030;-63
2022/11/16 04:03:43;;;;;;;13.32;10.48;;;14.80;99.90;;;;;;5027234;28;20080;-63
2022/11/16 04:25:43;;;;;;;18.73;14.60;;;13.90;99.90;;;;;;5027149;28;20041;-63
2022/11/16 04:28:17;;;;;;;25.60;17.38;;;14.20;99.90;;;;;;5028499;28;20045;-63
2022/11/16 04:39:03;;;;;;;10.90;8.68;;;14.70;99.90;;;;;;5031403;28;20124;-62
2022/11/16 04:44:16;;;;;;;17.08;11.55;;;14.10;99.90;;;;;;5032231;28;20073;-62
2022/11/16 04:49:26;;;;;;;23.52;14.38;;;14.80;99.90;;;;;;5029288;28;20057;-62
2022/11/16 04:51:51;;;;;;;20.73;12.80;;;14.50;99.90;;;;;;5029074;28;20475;-63
2022/11/16 04:54:17;;;;;;;18.90;11.38;;;14.00;99.90;;;;;;5030154;28;20398;-62
2022/11/16 04:56:42;;;;;;;16.33;10.50;;;14.20;99.90;;;;;;5031304;28;20042;-62
2022/11/16 04:59:08;;;;;;;15.35;10.63;;;14.30;99.90;;;;;;5027539;28;20040;-62
2022/11/16 05:04:18;;;;;;;18.70;10.23;;;13.80;99.90;;;;;;5022040;28;20402;-62
2022/11/16 05:06:44;;;;;;;20.27;10.23;;;14.60;99.90;;;;;;5029470;28;20045;-62
2022/11/16 05:09:10;;;;;;;19.27;10.05;;;14.30;99.90;;;;;;5031361;28;20042;-62
2022/11/16 05:11:35;;;;;;;20.50;10.63;;;13.80;99.90;;;;;;5029599;28;20068;-62
2022/11/16 05:14:01;;;;;;;17.65;10.35;;;13.80;99.90;;;;;;5030695;28;20535;-62
2022/11/16 05:16:27;;;;;;;20.75;9.77;;;13.40;99.90;;;;;;5025625;28;20076;-62
2022/11/16 05:21:36;;;;;;;18.67;9.57;;;13.30;99.90;;;;;;5027464;28;20195;-63
2022/11/16 05:26:46;;;;;;;18.23;10.35;;;14.20;99.90;;;;;;5028835;28;20100;-62
2022/11/16 05:29:13;;;;;;;22.20;10.50;;;13.30;99.90;;;;;;5030733;28;20442;-62
2022/11/16 05:31:39;;;;;;;21.13;10.75;;;13.70;99.90;;;;;;5029382;28;20068;-62
2022/11/16 05:34:04;;;;;;;21.30;12.68;;;14.20;99.90;;;;;;5027789;28;20029;-62
2022/11/16 05:36:30;;;;;;;24.02;11.50;;;13.40;99.90;;;;;;5031881;28;20045;-62
2022/11/16 05:38:55;;;;;;;23.67;12.80;;;13.50;99.90;;;;;;5012170;28;20044;-62
2022/11/16 05:41:21;;;;;;;22.10;13.75;;;13.30;99.90;;;;;;5030748;28;20537;-62
2022/11/16 05:43:46;;;;;;;23.48;12.68;;;13.50;99.90;;;;;;5030633;28;20060;-62
2022/11/16 05:46:12;;;;;;;26.38;13.80;;;13.10;99.90;;;;;;5030528;28;20038;-62
2022/11/16 05:48:38;;;;;;;18.70;11.95;;;14.00;99.90;;;;;;5028296;28;20044;-62
2022/11/16 05:51:04;;;;;;;21.45;12.15;;;13.30;99.90;;;;;;5029177;28;20034;-63
2022/11/16 05:53:29;;;;;;;23.42;12.77;;;13.30;99.90;;;;;;5028647;28;20029;-62
2022/11/16 05:55:55;;;;;;;23.83;13.32;;;14.00;99.90;;;;;;5024949;28;20037;-63
2022/11/16 05:58:21;;;;;;;22.45;13.85;;;13.50;99.90;;;;;;5024639;28;20052;-62
2022/11/16 06:00:47;;;;;;;23.10;13.50;;;13.70;99.90;;;;;;5038050;28;20037;-63
2022/11/16 06:03:13;;;;;;;32.28;17.73;;;13.90;99.90;;;;;;5024187;28;20041;-62
2022/11/16 06:05:38;;;;;;;30.38;16.42;;;13.00;99.90;;;;;;5024710;28;20121;-62
2022/11/16 06:08:04;;;;;;;29.48;16.13;;;13.80;99.90;;;;;;5023787;28;20033;-62
2022/11/16 06:10:30;;;;;;;27.92;16.95;;;13.70;99.90;;;;;;5025391;28;20037;-62
2022/11/16 06:12:56;;;;;;;26.13;14.57;;;13.80;99.90;;;;;;5024811;28;20076;-62
2022/11/16 06:15:21;;;;;;;25.33;14.90;;;13.80;99.90;;;;;;5026462;28;20111;-63
2022/11/16 06:17:47;;;;;;;24.65;13.88;;;13.90;99.90;;;;;;5029847;28;20045;-62
2022/11/16 06:20:12;;;;;;;22.10;12.35;;;13.70;99.90;;;;;;5028832;28;20030;-62
2022/11/16 06:22:38;;;;;;;16.92;10.77;;;12.90;99.90;;;;;;5030386;28;20061;-62
2022/11/16 06:25:07;;;;;;;16.67;9.90;;;13.60;99.90;;;;;;5028047;28;20068;-62
2022/11/16 06:27:32;;;;;;;15.57;9.88;;;13.60;99.90;;;;;;5029681;28;20053;-62
2022/11/16 06:29:59;;;;;;;20.98;9.95;;;13.40;99.90;;;;;;5032239;28;20088;-62
2022/11/16 06:32:25;;;;;;;13.70;8.02;;;13.10;99.90;;;;;;5031143;28;20040;-62
2022/11/16 06:34:50;;;;;;;16.55;8.70;;;12.90;99.90;;;;;;5024897;28;20542;-62
2022/11/16 06:37:17;;;;;;;16.60;10.25;;;13.50;99.90;;;;;;5027865;28;20038;-63
2022/11/16 06:39:43;;;;;;;15.77;10.77;;;12.70;99.90;;;;;;5030880;28;20064;-62
2022/11/16 06:42:09;;;;;;;19.98;12.05;;;13.30;99.90;;;;;;5034111;28;20506;-62
2022/11/16 06:44:35;;;;;;;22.05;14.32;;;12.50;99.90;;;;;;5032613;28;20132;-62
2022/11/16 06:47:01;;;;;;;25.60;14.48;;;12.60;99.90;;;;;;5033274;28;20125;-62
2022/11/16 06:49:27;;;;;;;25.48;14.10;;;12.70;99.90;;;;;;5024397;28;20438;-62
2022/11/16 06:51:53;;;;;;;23.77;14.23;;;13.60;99.90;;;;;;5026779;28;20051;-62
2022/11/16 06:54:19;;;;;;;21.88;14.55;;;13.40;99.90;;;;;;5030814;28;20732;-62
2022/11/16 06:56:44;;;;;;;20.63;14.85;;;13.00;99.90;;;;;;5025118;28;20073;-62
2022/11/16 06:59:10;;;;;;;21.80;15.05;;;13.70;99.90;;;;;;5031975;28;20260;-62
2022/11/16 07:01:36;;;;;;;19.08;12.90;;;13.00;99.90;;;;;;5030153;28;20395;-62
2022/11/16 07:04:01;;;;;;;21.65;15.13;;;13.20;99.90;;;;;;5031133;28;20037;-62
2022/11/16 07:06:28;;;;;;;21.40;14.95;;;12.70;99.90;;;;;;5025959;28;20041;-62
2022/11/16 07:08:54;;;;;;;25.50;16.50;;;13.40;99.90;;;;;;5021340;28;20045;-62
2022/11/16 07:11:19;;;;;;;22.80;16.15;;;13.70;99.90;;;;;;5027436;28;20408;-63
2022/11/16 07:13:47;;;;;;;21.98;14.52;;;13.60;99.90;;;;;;5030746;28;20550;-63
2022/11/16 07:16:12;;;;;;;26.65;16.65;;;12.70;99.90;;;;;;5026399;28;20041;-63
2022/11/16 07:18:39;;;;;;;25.02;15.32;;;12.60;99.90;;;;;;5033322;28;20487;-62
2022/11/16 07:21:10;;;;;;;19.85;14.85;;;12.80;99.90;;;;;;5033053;28;20076;-62
2022/11/16 07:23:36;;;;;;;17.58;12.38;;;13.40;99.90;;;;;;5025055;28;20388;-62
2022/11/16 07:26:03;;;;;;;19.98;14.27;;;13.60;99.90;;;;;;5025435;28;20042;-62
2022/11/16 07:28:30;;;;;;;20.42;14.10;;;12.60;99.90;;;;;;5025410;28;20517;-63
2022/11/16 07:31:22;;;;;;;23.77;13.00;;;12.60;99.90;;;;;;5026573;28;20033;-62
2022/11/16 07:33:47;;;;;;;19.17;13.05;;;12.60;99.90;;;;;;5015097;28;20991;-62
2022/11/16 07:36:14;;;;;;;19.40;13.52;;;13.20;99.90;;;;;;5029847;28;20037;-65
2022/11/16 07:38:40;;;;;;;17.20;12.50;;;12.50;99.90;;;;;;5026713;28;20050;-65
2022/11/16 07:41:09;;;;;;;18.60;14.27;;;13.30;99.90;;;;;;5022483;28;20538;-65
2022/11/16 07:43:35;;;;;;;20.25;14.95;;;12.80;99.90;;;;;;5027755;28;20052;-62
2022/11/16 07:46:06;;;;;;;22.52;14.93;;;12.50;99.90;;;;;;5020206;28;20037;-62
2022/11/16 07:48:32;;;;;;;23.65;15.65;;;12.50;99.90;;;;;;5026729;28;20076;-62
2022/11/16 07:51:03;;;;;;;22.40;15.23;;;12.60;99.90;;;;;;5044674;28;20046;-62
2022/11/16 07:53:29;;;;;;;18.90;13.00;;;13.30;99.90;;;;;;5025974;28;20039;-62
2022/11/16 07:55:55;;;;;;;19.65;13.18;;;12.40;99.90;;;;;;5029401;28;20029;-62
2022/11/16 07:58:21;;;;;;;15.68;12.38;;;12.40;99.90;;;;;;5032410;28;20098;-62
2022/11/16 08:00:47;;;;;;;17.15;11.77;;;12.50;99.90;;;;;;5033344;28;20077;-64
2022/11/16 08:03:13;;;;;;;22.00;14.18;;;12.60;99.90;;;;;;5032588;28;20505;-62
2022/11/16 08:05:39;;;;;;;23.33;14.38;;;13.00;99.90;;;;;;5032286;28;20064;-62
2022/11/16 08:08:05;;;;;;;22.55;13.32;;;12.70;99.90;;;;;;5031089;28;20038;-62
2022/11/16 08:10:30;;;;;;;26.80;15.60;;;13.20;99.90;;;;;;5022213;28;20440;-62
2022/11/16 08:12:56;;;;;;;20.15;11.90;;;13.30;99.90;;;;;;5032544;28;20045;-62
2022/11/16 08:15:23;;;;;;;17.35;13.43;;;13.30;99.90;;;;;;5029600;28;20066;-62
2022/11/16 08:17:48;;;;;;;18.02;12.88;;;12.60;99.90;;;;;;5017043;28;20034;-62
2022/11/16 08:20:15;;;;;;;21.35;14.20;;;13.10;99.90;;;;;;5024297;28;20030;-63
2022/11/16 08:22:41;;;;;;;18.85;13.50;;;13.20;99.90;;;;;;5031146;28;20355;-62
2022/11/16 08:25:07;;;;;;;16.88;11.65;;;13.30;99.90;;;;;;5026121;28;20499;-64
2022/11/16 08:27:33;;;;;;;18.30;13.38;;;13.50;99.90;;;;;;5025303;28;20510;-62
2022/11/16 08:30:01;;;;;;;21.83;14.45;;;13.40;99.90;;;;;;5020046;28;20045;-62
2022/11/16 08:32:28;;;;;;;21.10;13.25;;;12.70;99.90;;;;;;5018012;28;20410;-65
2022/11/16 08:34:54;;;;;;;21.85;13.88;;;13.40;99.90;;;;;;5026919;28;20517;-62
2022/11/16 08:37:20;;;;;;;19.83;13.35;;;13.50;99.90;;;;;;5031867;28;20136;-62
2022/11/16 08:39:46;;;;;;;22.50;12.80;;;12.80;99.90;;;;;;5030986;28;20182;-62
2022/11/16 08:42:11;;;;;;;27.13;14.73;;;13.60;99.90;;;;;;5017690;28;20112;-63
2022/11/16 08:44:37;;;;;;;27.95;16.52;;;13.60;99.90;;;;;;5032492;28;20552;-62
2022/11/16 08:47:02;;;;;;;36.95;21.70;;;13.30;99.90;;;;;;5026143;28;20404;-62
2022/11/16 08:49:28;;;;;;;36.55;19.35;;;13.30;99.90;;;;;;5024144;28;20403;-62
2022/11/16 08:51:54;;;;;;;34.45;19.15;;;13.00;99.90;;;;;;5032736;28;20037;-62
2022/11/16 08:54:20;;;;;;;24.08;15.90;;;13.00;99.90;;;;;;5032077;28;20087;-62
2022/11/16 08:56:45;;;;;;;30.98;16.73;;;13.20;99.90;;;;;;5032257;28;20037;-62
2022/11/16 08:59:11;;;;;;;24.58;14.75;;;13.60;99.90;;;;;;5030700;28;20048;-62
2022/11/16 09:01:37;;;;;;;20.65;13.15;;;13.80;99.90;;;;;;5031865;28;20037;-62
2022/11/16 09:04:02;;;;;;;28.15;18.17;;;13.20;99.90;;;;;;5030544;28;20080;-62
2022/11/16 09:06:28;;;;;;;30.05;17.10;;;13.40;99.90;;;;;;5030396;28;20096;-62
2022/11/16 09:08:54;;;;;;;28.17;18.00;;;13.20;99.90;;;;;;5031918;28;20483;-63
2022/11/16 09:11:22;;;;;;;27.92;18.50;;;14.00;99.90;;;;;;5031622;28;20447;-62
2022/11/16 09:13:49;;;;;;;25.52;16.13;;;13.30;99.90;;;;;;5030695;28;20103;-63
2022/11/16 09:16:15;;;;;;;25.77;16.17;;;13.40;99.90;;;;;;5029316;28;20045;-63
2022/11/16 09:18:42;;;;;;;30.60;18.77;;;14.30;99.90;;;;;;5031817;28;20049;-62
2022/11/16 09:21:08;;;;;;;21.30;14.63;;;14.20;99.90;;;;;;5028343;28;20033;-63
2022/11/16 09:23:33;;;;;;;20.67;12.95;;;13.60;99.90;;;;;;5026756;28;20047;-62
2022/11/16 09:26:00;;;;;;;21.70;15.77;;;14.40;99.90;;;;;;5031382;28;20101;-63
2022/11/16 09:28:26;;;;;;;18.13;11.18;;;13.20;99.90;;;;;;5030118;28;20085;-63
2022/11/16 09:30:51;;;;;;;20.90;11.45;;;13.40;99.90;;;;;;5030418;28;20037;-63
2022/11/16 09:33:17;;;;;;;19.65;12.45;;;14.10;99.90;;;;;;5024748;28;20038;-63
2022/11/16 09:35:43;;;;;;;20.15;10.05;;;14.30;99.90;;;;;;5023545;28;20034;-63
2022/11/16 09:38:08;;;;;;;14.95;9.40;;;13.30;99.90;;;;;;5029574;28;20041;-63
2022/11/16 09:40:40;;;;;;;18.95;8.43;;;14.60;99.90;;;;;;5027297;28;20096;-62
2022/11/16 09:43:30;;;;;;;14.35;7.32;;;14.20;99.90;;;;;;5030994;28;20045;-63
2022/11/16 09:45:59;;;;;;;21.75;8.85;;;14.40;99.90;;;;;;5028766;28;20033;-63
2022/11/16 09:48:25;;;;;;;9.32;5.70;;;13.10;99.90;;;;;;5025353;28;20124;-62
2022/11/16 09:50:55;;;;;;;17.52;7.15;;;13.10;99.90;;;;;;5026568;28;20053;-63
2022/11/16 09:53:43;;;;;;;17.00;6.35;;;12.90;99.90;;;;;;5026092;28;20488;-63
2022/11/16 09:56:11;;;;;;;10.25;4.55;;;14.00;99.90;;;;;;5029829;28;20702;-63
2022/11/16 09:59:00;;;;;;;15.38;6.35;;;13.90;99.90;;;;;;5030825;28;20049;-63
2022/11/16 10:01:34;;;;;;;12.25;5.55;;;13.50;99.90;;;;;;5026801;28;20270;-63
2022/11/16 10:04:14;;;;;;;10.88;5.35;;;13.30;99.90;;;;;;5029150;28;20124;-63
2022/11/16 10:06:54;;;;;;;11.05;4.97;;;13.70;99.90;;;;;;5030176;28;20144;-63
2022/11/16 10:09:21;;;;;;;14.27;4.53;;;13.60;99.90;;;;;;5026329;28;20399;-63
2022/11/16 10:12:14;;;;;;;11.60;4.03;;;13.50;99.90;;;;;;5030784;28;20056;-63
2022/11/16 10:15:06;;;;;;;11.50;3.90;;;14.30;99.90;;;;;;5021602;28;20053;-63
2022/11/16 10:18:03;;;;;;;13.00;5.22;;;13.90;99.90;;;;;;5019245;28;20132;-63
2022/11/16 10:20:48;;;;;;;10.85;4.72;;;14.30;99.90;;;;;;5026021;28;20506;-63
2022/11/16 10:23:29;;;;;;;9.97;4.67;;;13.80;99.90;;;;;;5027456;28;20048;-63
2022/11/16 10:26:29;;;;;;;10.77;4.97;;;13.70;99.90;;;;;;5029616;28;20133;-63
2022/11/16 10:29:25;;;;;;;14.32;6.28;;;14.10;99.90;;;;;;5021596;28;20042;-63
2022/11/16 10:32:11;;;;;;;10.05;4.88;;;14.30;99.90;;;;;;5023840;28;20037;-63
2022/11/16 10:34:52;;;;;;;11.63;5.07;;;14.40;99.90;;;;;;5012166;28;20050;-62
2022/11/16 10:37:20;;;;;;;15.95;5.30;;;14.40;99.90;;;;;;5028744;28;20540;-63
2022/11/16 10:39:50;;;;;;;12.65;4.43;;;13.90;99.90;;;;;;5030102;28;20127;-63
2022/11/16 10:42:21;;;;;;;10.43;4.28;;;14.00;99.90;;;;;;5030152;28;20231;-63
2022/11/16 10:44:55;;;;;;;11.32;4.95;;;13.80;99.90;;;;;;5027976;28;20077;-63
2022/11/16 10:47:34;;;;;;;15.88;5.18;;;14.20;99.90;;;;;;5018463;28;20089;-63
2022/11/16 10:50:03;;;;;;;15.10;5.38;;;14.10;99.90;;;;;;5021934;28;20120;-63
2022/11/16 10:52:28;;;;;;;11.05;5.22;;;14.20;99.90;;;;;;5011875;28;20153;-64
2022/11/16 10:54:54;;;;;;;18.27;5.43;;;14.30;99.90;;;;;;5018827;28;20137;-64
2022/11/16 10:57:22;;;;;;;15.15;5.43;;;13.80;99.90;;;;;;5020240;28;20128;-64
2022/11/16 10:59:54;;;;;;;8.20;4.55;;;13.80;99.90;;;;;;5023001;28;20513;-63
2022/11/16 11:02:33;;;;;;;12.10;4.80;;;13.80;99.90;;;;;;5021142;28;20052;-63
2022/11/16 11:05:19;;;;;;;15.25;5.03;;;14.20;99.90;;;;;;5022873;28;20037;-63
2022/11/16 11:08:03;;;;;;;12.65;4.65;;;14.10;99.90;;;;;;5021601;28;20073;-63
2022/11/16 11:10:38;;;;;;;15.70;5.55;;;13.80;99.90;;;;;;5023479;28;20036;-63
2022/11/16 11:13:11;;;;;;;12.73;5.55;;;13.90;99.90;;;;;;5017870;28;20560;-63
2022/11/16 11:15:38;;;;;;;22.75;10.18;;;14.00;99.90;;;;;;5029621;28;20037;-63
2022/11/16 11:18:29;;;;;;;15.80;5.57;;;13.90;99.90;;;;;;5028729;28;20041;-63
2022/11/16 11:21:11;;;;;;;12.60;5.43;;;13.80;99.90;;;;;;5022203;28;20103;-63
2022/11/16 11:23:42;;;;;;;10.63;5.00;;;14.20;99.90;;;;;;5025779;28;20053;-63
2022/11/16 11:26:29;;;;;;;9.20;5.68;;;13.80;99.90;;;;;;5028569;28;20041;-63
2022/11/16 11:28:56;;;;;;;12.00;4.50;;;13.80;99.90;;;;;;5019028;28;20053;-63
2022/11/16 11:31:28;;;;;;;14.40;4.60;;;13.90;99.90;;;;;;5026824;28;20465;-63
2022/11/16 11:33:57;;;;;;;9.32;4.47;;;13.90;99.90;;;;;;5029424;28;20107;-63
2022/11/16 11:36:32;;;;;;;14.77;5.45;;;14.20;99.90;;;;;;5024804;28;20483;-63
2022/11/16 11:39:22;;;;;;;12.40;5.88;;;14.00;99.90;;;;;;5027939;28;20037;-63
2022/11/16 11:42:19;;;;;;;12.40;4.70;;;14.00;99.90;;;;;;5029669;28;20037;-63
2022/11/16 11:44:58;;;;;;;15.38;4.75;;;14.40;99.90;;;;;;5020478;28;20050;-63
2022/11/16 11:47:46;;;;;;;12.50;4.70;;;14.10;99.90;;;;;;5026775;28;20543;-63
2022/11/16 11:50:37;;;;;;;13.02;5.65;;;14.10;99.90;;;;;;5026435;28;20332;-63
2022/11/16 11:53:21;;;;;;;10.82;6.28;;;14.50;99.90;;;;;;5026774;28;20103;-63
2022/11/16 11:55:56;;;;;;;19.95;8.52;;;14.50;99.90;;;;;;5024755;28;20120;-63
2022/11/16 11:58:28;;;;;;;23.83;8.00;;;14.60;99.90;;;;;;5025998;28;20156;-63
2022/11/16 12:01:22;;;;;;;12.15;6.35;;;14.20;99.90;;;;;;5021445;28;20128;-63
2022/11/16 12:04:37;;;;;;;20.00;7.38;;;14.60;99.90;;;;;;5020927;28;20722;-63
2022/11/16 12:07:28;;;;;;;15.45;5.63;;;14.30;99.90;;;;;;5026831;28;20041;-63
2022/11/16 12:10:10;;;;;;;10.90;5.38;;;14.10;99.90;;;;;;5025120;28;20120;-63
2022/11/16 12:12:40;;;;;;;16.02;5.13;;;13.90;99.90;;;;;;5024071;28;20068;-63
2022/11/16 12:15:25;;;;;;;14.50;5.57;;;14.00;99.90;;;;;;5024905;28;20115;-63
2022/11/16 12:18:05;;;;;;;13.70;5.40;;;13.70;99.90;;;;;;5020905;28;20646;-63
2022/11/16 12:21:04;;;;;;;9.52;5.00;;;14.10;99.90;;;;;;5022958;28;20052;-63
2022/11/16 12:23:57;;;;;;;12.10;4.95;;;13.70;99.90;;;;;;5024001;28;20049;-63
2022/11/16 12:26:25;;;;;;;12.65;4.55;;;13.60;99.90;;;;;;5023859;28;20050;-63
2022/11/16 12:29:19;;;;;;;10.45;3.85;;;13.80;99.90;;;;;;5024544;28;20042;-63
2022/11/16 12:32:00;;;;;;;13.55;4.68;;;13.60;99.90;;;;;;5020996;28;20068;-63
2022/11/16 12:34:51;;;;;;;10.48;4.40;;;13.60;99.90;;;;;;5019444;28;20120;-63
2022/11/16 12:37:55;;;;;;;9.48;3.60;;;13.60;99.90;;;;;;5022877;28;20491;-63
2022/11/16 12:40:29;;;;;;;9.43;3.60;;;13.80;99.90;;;;;;5021465;28;20061;-63
2022/11/16 12:43:08;;;;;;;11.80;3.88;;;13.60;99.90;;;;;;5022325;28;20037;-63
2022/11/16 12:45:37;;;;;;;11.80;3.70;;;13.50;99.90;;;;;;5024377;28;20033;-63
2022/11/16 12:48:35;;;;;;;17.70;4.30;;;13.70;99.90;;;;;;5022602;28;20053;-63
2022/11/16 12:51:28;;;;;;;13.98;3.28;;;13.70;99.90;;;;;;5019164;28;20380;-63
2022/11/16 12:54:31;;;;;;;10.43;3.58;;;13.70;99.90;;;;;;5029920;28;20103;-63
2022/11/16 12:57:12;;;;;;;14.75;4.03;;;13.70;99.90;;;;;;5027601;28;20037;-64
2022/11/16 13:00:10;;;;;;;16.80;4.22;;;13.70;99.90;;;;;;5024345;28;20128;-64
2022/11/16 13:03:02;;;;;;;15.75;3.35;;;13.70;99.90;;;;;;5023853;28;20045;-63
2022/11/16 13:06:00;;;;;;;13.38;3.03;;;13.60;99.90;;;;;;5025975;28;20403;-64
2022/11/16 13:09:00;;;;;;;5.22;2.47;;;13.70;99.90;;;;;;5017031;28;20081;-63
2022/11/16 13:11:38;;;;;;;5.53;2.60;;;13.60;99.90;;;;;;5018045;28;20065;-64
2022/11/16 13:14:10;;;;;;;9.95;2.75;;;13.50;99.90;;;;;;5020983;28;20042;-64
2022/11/16 13:16:36;;;;;;;8.60;3.40;;;13.30;99.90;;;;;;5024487;28;20510;-63
2022/11/16 13:19:05;;;;;;;8.27;2.88;;;13.40;99.90;;;;;;5024257;28;20072;-63
2022/11/16 13:21:37;;;;;;;10.23;2.85;;;13.20;99.90;;;;;;5023145;28;20071;-63
2022/11/16 13:24:38;;;;;;;10.07;2.85;;;13.40;99.90;;;;;;5023059;28;20041;-63
2022/11/16 13:27:10;;;;;;;10.20;2.83;;;13.20;99.90;;;;;;5022065;28;20045;-63
2022/11/16 13:29:49;;;;;;;13.95;3.17;;;13.30;99.90;;;;;;5023880;28;20033;-63
2022/11/16 13:32:39;;;;;;;7.72;2.95;;;13.20;99.90;;;;;;5024686;28;20064;-64
2022/11/16 13:35:11;;;;;;;12.73;3.33;;;13.40;99.90;;;;;;5026088;28;20038;-63
2022/11/16 13:37:37;;;;;;;9.18;2.67;;;13.10;99.90;;;;;;5027574;28;20103;-64
2022/11/16 13:40:05;;;;;;;14.25;2.85;;;13.40;99.90;;;;;;5021898;28;20079;-64
2022/11/16 13:42:34;;;;;;;7.45;2.55;;;13.20;99.90;;;;;;5028103;28;20049;-63